createdAt,value
2022-11-13T00:01:41.735Z,20.20
2022-11-13T00:04:27.453Z,21.10
2022-11-13T00:09:58.656Z,18.13
2022-11-13T00:12:44.137Z,19.23
2022-11-13T00:15:29.466Z,17.27
2022-11-13T00:18:15.176Z,18.40
2022-11-13T00:21:14.135Z,18.10
2022-11-13T00:23:59.962Z,17.55
2022-11-13T00:26:45.241Z,18.48
2022-11-13T00:29:30.971Z,17.58
2022-11-13T00:32:16.802Z,19.20
2022-11-13T00:35:02.356Z,18.17
2022-11-13T00:37:47.694Z,16.45
2022-11-13T00:40:33.346Z,17.42
2022-11-13T00:43:18.704Z,17.52
2022-11-13T00:48:50.832Z,16.52
2022-11-13T00:54:22.361Z,17.30
2022-11-13T00:57:07.716Z,16.83
2022-11-13T00:59:53.256Z,15.50
2022-11-13T01:02:38.520Z,14.00
2022-11-13T01:08:11.664Z,15.35
2022-11-13T01:10:57.197Z,14.15
2022-11-13T01:13:46.008Z,14.82
2022-11-13T01:16:31.302Z,15.18
2022-11-13T01:19:17.834Z,12.57
2022-11-13T01:22:03.230Z,13.93
2022-11-13T01:24:48.915Z,13.65
2022-11-13T01:27:37.457Z,13.27
2022-11-13T01:30:23.902Z,13.02
2022-11-13T01:33:09.154Z,14.02
2022-11-13T01:36:04.949Z,13.80
2022-11-13T01:38:51.915Z,13.10
2022-11-13T01:41:38.092Z,14.05
2022-11-13T01:44:23.759Z,12.35
2022-11-13T01:50:01.004Z,12.38
2022-11-13T01:52:46.638Z,11.07
2022-11-13T01:55:31.983Z,12.45
2022-11-13T01:58:17.853Z,12.43
2022-11-13T02:03:49.061Z,11.07
2022-11-13T02:06:50.830Z,12.27
2022-11-13T02:09:41.336Z,11.68
2022-11-13T02:12:51.150Z,11.55
2022-11-13T02:15:37.173Z,11.15
2022-11-13T02:18:24.110Z,11.90
2022-11-13T02:21:46.263Z,11.75
2022-11-13T02:24:38.443Z,12.25
2022-11-13T02:27:39.517Z,10.85
2022-11-13T02:30:30.659Z,11.43
2022-11-13T02:33:27.383Z,12.30
2022-11-13T02:36:15.183Z,11.15
2022-11-13T02:39:06.696Z,13.02
2022-11-13T02:41:52.318Z,12.82
2022-11-13T02:44:37.738Z,13.68
2022-11-13T02:47:23.191Z,11.93
2022-11-13T02:50:11.364Z,13.48
2022-11-13T02:52:56.877Z,12.27
2022-11-13T02:58:28.384Z,12.35
2022-11-13T03:01:14.094Z,11.98
2022-11-13T03:04:00.748Z,12.30
2022-11-13T03:06:46.388Z,12.77
2022-11-13T03:09:31.974Z,12.57
2022-11-13T03:12:17.544Z,13.60
2022-11-13T03:15:05.180Z,12.43
2022-11-13T03:17:51.007Z,12.02
2022-11-13T03:20:40.471Z,11.73
2022-11-13T03:23:26.195Z,12.45
2022-11-13T03:26:15.543Z,10.95
2022-11-13T03:29:01.221Z,13.52
2022-11-13T03:31:46.747Z,13.05
2022-11-13T03:34:33.015Z,12.07
2022-11-13T03:37:18.626Z,11.73
2022-11-13T03:40:04.787Z,12.63
2022-11-13T03:42:50.372Z,11.82
2022-11-13T03:45:36.081Z,11.10
2022-11-13T03:48:22.095Z,11.55
2022-11-13T03:51:07.970Z,10.77
2022-11-13T03:53:54.452Z,11.15
2022-11-13T03:56:40.047Z,10.48
2022-11-13T03:59:25.629Z,10.50
2022-11-13T04:04:56.262Z,8.95
2022-11-13T04:07:41.752Z,10.23
2022-11-13T04:10:27.328Z,10.35
2022-11-13T04:13:12.735Z,9.32
2022-11-13T04:15:58.112Z,9.88
2022-11-13T04:18:43.987Z,9.40
2022-11-13T04:21:29.625Z,9.55
2022-11-13T04:24:15.107Z,8.68
2022-11-13T04:27:00.631Z,10.35
2022-11-13T04:29:46.058Z,9.43
2022-11-13T04:32:32.808Z,12.63
2022-11-13T04:35:18.711Z,9.70
2022-11-13T04:38:04.538Z,9.73
2022-11-13T04:41:11.678Z,8.45
2022-11-13T04:43:57.035Z,10.68
2022-11-13T04:46:42.570Z,10.20
2022-11-13T04:49:28.130Z,9.98
2022-11-13T04:52:13.623Z,9.63
2022-11-13T04:57:44.659Z,8.90
2022-11-13T05:00:30.072Z,8.90
2022-11-13T05:03:15.768Z,10.73
2022-11-13T05:06:07.106Z,9.93
2022-11-13T05:08:52.860Z,9.98
2022-11-13T05:14:23.644Z,9.52
2022-11-13T05:17:11.784Z,9.07
2022-11-13T05:19:57.263Z,9.85
2022-11-13T05:22:42.741Z,9.80
2022-11-13T05:25:28.261Z,9.73
2022-11-13T05:28:13.686Z,10.02
2022-11-13T05:31:16.695Z,8.88
2022-11-13T05:34:06.085Z,10.23
2022-11-13T05:36:51.771Z,9.48
2022-11-13T05:42:22.754Z,8.50
2022-11-13T05:45:08.972Z,9.07
2022-11-13T05:47:54.411Z,11.13
2022-11-13T05:50:40.097Z,9.63
2022-11-13T05:53:25.405Z,9.57
2022-11-13T05:56:24.083Z,8.63
2022-11-13T05:59:09.329Z,9.20
2022-11-13T06:01:54.888Z,9.80
2022-11-13T06:04:40.140Z,10.10
2022-11-13T06:07:25.743Z,9.77
2022-11-13T06:10:12.523Z,9.65
2022-11-13T06:12:57.907Z,8.90
2022-11-13T06:15:43.191Z,9.18
2022-11-13T06:18:29.969Z,10.60
2022-11-13T06:21:20.595Z,8.98
2022-11-13T06:24:08.279Z,9.00
2022-11-13T06:26:53.794Z,9.23
2022-11-13T06:29:39.015Z,9.55
2022-11-13T06:35:10.072Z,8.73
2022-11-13T06:40:41.366Z,8.63
2022-11-13T06:43:27.851Z,9.75
2022-11-13T06:46:16.600Z,9.05
2022-11-13T06:49:02.575Z,9.68
2022-11-13T06:51:48.010Z,9.27
2022-11-13T06:57:19.594Z,8.50
2022-11-13T07:00:06.795Z,9.18
2022-11-13T07:02:52.770Z,9.18
2022-11-13T07:05:37.940Z,8.90
2022-11-13T07:08:23.288Z,9.05
2022-11-13T07:14:03.552Z,8.18
2022-11-13T07:17:08.708Z,9.20
2022-11-13T07:19:54.637Z,8.18
2022-11-13T07:22:40.004Z,9.90
2022-11-13T07:25:27.247Z,94.40
2022-11-13T07:28:12.741Z,11.73
2022-11-13T07:30:59.488Z,86.70
2022-11-13T07:33:48.580Z,29.55
2022-11-13T07:36:33.848Z,54.88
2022-11-13T07:39:19.655Z,14.43
2022-11-13T07:42:05.102Z,8.50
2022-11-13T07:44:55.017Z,10.45
2022-11-13T07:47:41.291Z,10.07
2022-11-13T07:50:29.902Z,11.18
2022-11-13T07:53:16.496Z,13.63
2022-11-13T07:56:03.916Z,11.77
2022-11-13T07:58:49.858Z,17.50
2022-11-13T08:01:35.527Z,22.83
2022-11-13T08:04:21.557Z,14.43
2022-11-13T08:07:08.048Z,13.70
2022-11-13T08:09:53.568Z,12.10
2022-11-13T08:12:39.056Z,24.25
2022-11-13T08:18:10.432Z,9.63
2022-11-13T08:23:42.774Z,15.23
2022-11-13T08:26:28.528Z,12.95
2022-11-13T08:31:59.319Z,10.93
2022-11-13T08:37:30.461Z,10.53
2022-11-13T08:40:16.082Z,9.82
2022-11-13T08:43:05.041Z,10.02
2022-11-13T08:45:50.653Z,9.52
2022-11-13T08:48:36.480Z,9.15
2022-11-13T08:51:21.851Z,9.07
2022-11-13T08:54:07.218Z,10.20
2022-11-13T08:59:42.209Z,7.65
2022-11-13T09:02:28.115Z,9.98
2022-11-13T09:05:14.240Z,7.75
2022-11-13T09:08:01.713Z,9.77
2022-11-13T09:10:47.329Z,8.32
2022-11-13T09:13:36.614Z,8.23
2022-11-13T09:16:25.719Z,8.35
2022-11-13T09:21:56.707Z,8.70
2022-11-13T09:24:41.904Z,8.98
2022-11-13T09:30:13.482Z,9.05
2022-11-13T09:33:00.962Z,9.27
2022-11-13T09:35:50.006Z,8.98
2022-11-13T09:38:35.886Z,8.70
2022-11-13T09:41:28.117Z,8.18
2022-11-13T09:44:24.791Z,9.00
2022-11-13T09:47:23.084Z,9.05
2022-11-13T09:50:27.719Z,8.98
2022-11-13T09:53:37.790Z,8.10
2022-11-13T09:57:04.747Z,9.10
2022-11-13T10:00:04.763Z,9.77
2022-11-13T10:06:52.025Z,8.65
2022-11-13T10:09:58.563Z,7.72
2022-11-13T10:15:33.734Z,7.82
2022-11-13T10:18:31.227Z,8.50
2022-11-13T10:21:39.818Z,8.27
2022-11-13T10:24:30.180Z,7.60
2022-11-13T10:27:16.161Z,7.65
2022-11-13T10:30:02.936Z,7.95
2022-11-13T10:32:48.736Z,8.70
2022-11-13T10:35:52.443Z,7.72
2022-11-13T10:38:44.748Z,7.03
2022-11-13T10:41:30.530Z,8.35
2022-11-13T10:44:32.277Z,8.27
2022-11-13T10:47:36.487Z,7.30
2022-11-13T10:50:31.250Z,7.15
2022-11-13T10:53:18.851Z,6.70
2022-11-13T10:56:31.338Z,7.00
2022-11-13T10:59:19.686Z,7.55
2022-11-13T11:02:21.792Z,8.07
2022-11-13T11:05:22.846Z,7.32
2022-11-13T11:09:22.686Z,7.35
2022-11-13T11:16:26.975Z,6.90
2022-11-13T11:42:05.262Z,7.53
2022-11-13T11:45:27.362Z,7.28
2022-11-13T11:48:27.592Z,7.50
2022-11-13T11:51:22.588Z,7.25
2022-11-13T11:54:37.295Z,7.57
2022-11-13T11:57:47.968Z,7.50
2022-11-13T12:00:41.417Z,7.75
2022-11-13T12:04:11.569Z,8.45
2022-11-13T12:07:27.414Z,8.77
2022-11-13T12:10:42.994Z,9.02
2022-11-13T12:13:43.241Z,9.23
2022-11-13T12:16:55.023Z,9.20
2022-11-13T12:19:59.268Z,9.70
2022-11-13T12:23:24.197Z,9.63
2022-11-13T12:26:42.729Z,9.68
2022-11-13T12:30:07.732Z,10.40
2022-11-13T12:33:28.883Z,9.80
2022-11-13T12:36:16.139Z,10.45
2022-11-13T12:39:52.400Z,10.05
2022-11-13T12:42:53.005Z,11.38
2022-11-13T12:45:39.533Z,10.57
2022-11-13T12:48:46.045Z,11.18
2022-11-13T12:51:52.843Z,11.52
2022-11-13T12:54:38.907Z,10.88
2022-11-13T12:57:30.335Z,10.65
2022-11-13T13:00:29.185Z,11.18
2022-11-13T13:03:42.471Z,10.57
2022-11-13T13:07:10.019Z,10.52
2022-11-13T13:10:36.320Z,10.88
2022-11-13T13:13:41.032Z,10.90
2022-11-13T13:16:29.685Z,11.38
2022-11-13T13:19:40.646Z,11.50
2022-11-13T13:22:35.823Z,11.50
2022-11-13T13:25:34.459Z,12.35
2022-11-13T13:28:24.813Z,11.65
2022-11-13T13:31:13.212Z,11.50
2022-11-13T13:34:19.027Z,11.77
2022-11-13T13:37:55.249Z,12.85
2022-11-13T13:41:01.908Z,12.45
2022-11-13T13:44:26.835Z,12.20
2022-11-13T13:47:43.573Z,12.13
2022-11-13T13:53:34.637Z,12.63
2022-11-13T13:56:22.255Z,14.45
2022-11-13T13:59:44.633Z,15.00
2022-11-13T14:02:30.409Z,14.75
2022-11-13T14:05:35.031Z,15.18
2022-11-13T14:11:29.683Z,14.55
2022-11-13T14:14:22.546Z,14.13
2022-11-13T14:17:11.958Z,17.60
2022-11-13T14:20:01.078Z,15.35
2022-11-13T14:22:55.259Z,14.98
2022-11-13T14:25:44.334Z,15.60
2022-11-13T14:28:34.955Z,15.15
2022-11-13T14:31:32.648Z,15.88
2022-11-13T14:34:23.859Z,15.75
2022-11-13T14:37:29.322Z,15.23
2022-11-13T14:40:31.157Z,15.47
2022-11-13T14:43:32.765Z,15.02
2022-11-13T14:46:30.830Z,16.70
2022-11-13T14:49:34.546Z,17.65
2022-11-13T14:52:27.519Z,17.13
2022-11-13T14:55:34.308Z,17.52
2022-11-13T14:58:33.388Z,16.73
2022-11-13T15:01:22.840Z,17.05
2022-11-13T15:04:08.510Z,18.85
2022-11-13T15:07:15.828Z,17.05
2022-11-13T15:10:01.863Z,17.67
2022-11-13T15:12:48.872Z,19.10
2022-11-13T15:15:34.500Z,19.63
2022-11-13T15:18:20.547Z,19.23
2022-11-13T15:21:06.656Z,18.80
2022-11-13T15:23:52.162Z,20.83
2022-11-13T15:26:37.811Z,19.90
2022-11-13T15:29:23.551Z,20.85
2022-11-13T15:32:13.050Z,19.52
2022-11-13T15:34:58.351Z,20.10
2022-11-13T15:40:30.620Z,19.50
2022-11-13T15:43:22.836Z,21.20
2022-11-13T15:46:18.021Z,19.90
2022-11-13T15:49:03.898Z,21.17
2022-11-13T15:51:49.860Z,21.33
2022-11-13T15:54:38.735Z,20.05
2022-11-13T15:57:30.227Z,20.23
2022-11-13T16:00:25.026Z,20.58
2022-11-13T16:03:12.165Z,21.88
2022-11-13T16:06:01.029Z,21.75
2022-11-13T16:08:47.838Z,21.90
2022-11-13T16:11:34.568Z,22.90
2022-11-13T16:14:24.512Z,23.15
2022-11-13T16:17:20.841Z,22.27
2022-11-13T16:20:10.303Z,22.83
2022-11-13T16:22:56.116Z,20.83
2022-11-13T16:28:27.028Z,23.38
2022-11-13T16:31:12.820Z,22.67
2022-11-13T16:33:58.424Z,25.67
2022-11-13T16:39:29.705Z,25.13
2022-11-13T16:42:17.111Z,25.98
2022-11-13T16:45:02.383Z,24.30
2022-11-13T16:47:50.597Z,24.75
2022-11-13T16:50:39.448Z,25.83
2022-11-13T16:53:25.071Z,27.63
2022-11-13T16:59:01.749Z,30.13
2022-11-13T17:01:47.643Z,28.00
2022-11-13T17:04:33.455Z,27.40
2022-11-13T17:10:29.622Z,34.92
2022-11-13T17:13:10.566Z,32.38
2022-11-13T17:18:49.488Z,30.42
2022-11-13T17:21:37.881Z,29.77
2022-11-13T17:24:25.952Z,30.90
2022-11-13T17:27:11.396Z,144.93
2022-11-13T17:29:56.824Z,112.82
2022-11-13T17:32:42.413Z,180.50
2022-11-13T17:38:14.283Z,88.30
2022-11-13T17:41:16.032Z,59.83
2022-11-13T17:44:02.397Z,45.17
2022-11-13T17:46:48.527Z,38.00
2022-11-13T17:49:34.122Z,34.78
2022-11-13T17:55:07.666Z,32.77
2022-11-13T17:57:53.315Z,32.75
2022-11-13T18:00:38.647Z,34.97
2022-11-13T18:03:24.054Z,35.90
2022-11-13T18:09:04.377Z,34.95
2022-11-13T18:11:50.204Z,34.75
2022-11-13T18:14:35.413Z,36.70
2022-11-13T18:17:23.199Z,36.42
2022-11-13T18:20:09.895Z,35.80
2022-11-13T18:22:55.961Z,38.15
2022-11-13T18:25:41.337Z,48.53
2022-11-13T18:28:26.704Z,36.58
2022-11-13T18:34:04.850Z,37.70
2022-11-13T18:36:51.129Z,38.08
2022-11-13T18:39:37.182Z,37.38
2022-11-13T18:45:11.796Z,37.45
2022-11-13T18:47:57.552Z,37.25
2022-11-13T18:53:29.993Z,37.25
2022-11-13T18:56:26.702Z,39.25
2022-11-13T18:59:12.528Z,35.20
2022-11-13T19:01:58.636Z,34.67
2022-11-13T19:04:44.949Z,35.40
2022-11-13T19:07:30.685Z,37.05
2022-11-13T19:13:04.481Z,37.05
2022-11-13T19:15:50.899Z,38.85
2022-11-13T19:18:38.867Z,39.17
2022-11-13T19:21:28.835Z,53.78
2022-11-13T19:24:15.220Z,40.97
2022-11-13T19:27:00.817Z,38.47
2022-11-13T19:29:46.974Z,37.53
2022-11-13T19:32:33.077Z,44.47
2022-11-13T19:35:19.261Z,39.75
2022-11-13T19:38:05.057Z,37.78
2022-11-13T19:40:52.748Z,37.42
2022-11-13T19:43:43.121Z,39.80
2022-11-13T19:46:32.090Z,37.80
2022-11-13T19:49:17.757Z,36.40
2022-11-13T19:52:03.587Z,34.97
2022-11-13T19:54:49.090Z,36.88
2022-11-13T19:57:35.387Z,35.70
2022-11-13T20:00:21.864Z,35.65
2022-11-13T20:03:08.009Z,36.13
2022-11-13T20:05:59.461Z,33.85
2022-11-13T20:08:45.387Z,35.03
2022-11-13T20:11:32.643Z,34.58
2022-11-13T20:14:18.698Z,34.03
2022-11-13T20:17:05.296Z,34.65
2022-11-13T20:19:51.210Z,33.45
2022-11-13T21:34:59.153Z,29.20
2022-11-13T21:37:44.684Z,28.77
2022-11-13T21:40:30.768Z,27.83
2022-11-13T21:43:16.576Z,28.25
2022-11-13T21:46:06.498Z,27.35
2022-11-13T21:49:05.544Z,28.13
2022-11-13T21:51:54.206Z,26.42
2022-11-13T21:54:40.682Z,26.65
2022-11-13T21:57:27.135Z,26.40
2022-11-13T22:00:13.970Z,25.60
2022-11-13T22:02:59.271Z,24.75
2022-11-13T22:08:37.442Z,24.60
2022-11-13T22:11:25.974Z,25.23
2022-11-13T22:14:12.428Z,24.65
2022-11-13T22:16:58.244Z,24.88
2022-11-13T22:19:44.124Z,23.85
2022-11-13T22:22:29.794Z,25.10
2022-11-13T22:28:07.106Z,23.20
2022-11-13T22:30:53.279Z,23.40
2022-11-13T22:33:54.450Z,23.67
2022-11-13T22:36:41.125Z,22.48
2022-11-13T22:39:26.634Z,22.58
2022-11-13T22:42:12.032Z,21.70
2022-11-13T22:44:57.494Z,21.38
2022-11-13T22:47:43.001Z,21.23
2022-11-13T22:50:28.467Z,21.15
2022-11-13T22:56:12.935Z,21.13
2022-11-13T22:59:01.444Z,20.45
2022-11-13T23:01:47.487Z,19.55
2022-11-13T23:04:33.013Z,20.60
2022-11-13T23:07:18.591Z,20.55
2022-11-13T23:10:05.105Z,20.52
2022-11-13T23:12:50.757Z,20.98
2022-11-13T23:15:36.223Z,19.67
2022-11-13T23:18:21.772Z,19.13
2022-11-13T23:21:10.096Z,21.75
2022-11-13T23:23:56.733Z,19.13
2022-11-13T23:26:42.197Z,20.30
2022-11-13T23:29:28.098Z,18.58
2022-11-13T23:32:13.538Z,20.35
2022-11-13T23:35:00.060Z,19.50
2022-11-13T23:37:46.950Z,20.02
2022-11-13T23:40:32.326Z,20.52
2022-11-13T23:43:17.798Z,19.20
2022-11-13T23:48:49.541Z,19.50
2022-11-13T23:51:34.999Z,18.17
2022-11-13T23:57:06.412Z,20.00
2022-11-13T23:59:52.082Z,18.13
